Flight Track Log - Related Links

Times and Time Zones

All times are in EDT time to prevent confusion due to time zone crossing. See the N816RF flight status page for this flight to view local times or setup timezone preferences in your user account.

Time Position Orientation Groundspeed Altitude Reporting Facility
EDT Latitude Longitude Course Direction KTS MPH feet Rate Location/Type
Mon 08:06:55 PM 37.7333 -122.2333 338° Northwest 102 117 700  Level Northern Cal TRACON
Mon 08:08:01 PM 37.7667 -122.2500 322° Northwest 111 128 2,200 1,333 Climbing Northern Cal TRACON
Mon 08:09:01 PM 37.7833 -122.2667 322° Northwest 118 136 3,500 1,050 Climbing Northern Cal TRACON
Mon 08:10:01 PM 37.8167 -122.3000 360° North 130 150 4,300 659 Climbing Northern Cal TRACON
Mon 08:11:45 PM 37.8828 -122.2997 359° North 136 157 5,300 549 Climbing Oakland Center
Mon 08:12:45 PM 37.9222 -122.3006 North 141 162 5,800 500 Climbing Oakland Center
Mon 08:13:45 PM 37.9661 -122.2986 North 141 162 6,300 500 Climbing Oakland Center
Mon 08:14:45 PM 38.0058 -122.2967 North 146 168 6,800 500 Climbing Oakland Center
Mon 08:15:45 PM 38.0475 -122.2947 359° North 146 168 7,300 454 Climbing Oakland Center
Mon 08:16:44 PM 38.0872 -122.2956 North 146 168 7,700 450 Climbing Oakland Center
Mon 08:17:45 PM 38.1289 -122.2936 North 146 168 8,200 446 Climbing Oakland Center
Mon 08:18:45 PM 38.1686 -122.2917 North 140 161 8,600 400 Climbing Oakland Center
Mon 08:19:45 PM 38.2103 -122.2897 North 140 161 9,000 450 Climbing Oakland Center
Mon 08:20:45 PM 38.2500 -122.2878 359° North 140 161 9,500 454 Climbing Oakland Center
Mon 08:21:44 PM 38.2917 -122.2886 North 140 161 9,900 200 Climbing Oakland Center
Mon 08:22:45 PM 38.3356 -122.2867 359° North 145 167 9,900  Level Oakland Center
Mon 08:23:44 PM 38.3833 -122.2875 North 151 174 9,900  Level Oakland Center
Mon 08:24:45 PM 38.4314 -122.2858 North 162 186 9,900  Level Oakland Center
Mon 08:25:44 PM 38.4794 -122.2839 North 162 186 9,900  Level Oakland Center
Mon 08:26:45 PM 38.5272 -122.2822 359° North 167 192 9,900  Level Oakland Center
Mon 08:27:45 PM 38.5753 -122.2831 North 167 192 9,900  Level Oakland Center
Mon 08:28:45 PM 38.6233 -122.2814 North 167 192 9,900  Level Oakland Center
Mon 08:29:45 PM 38.6714 -122.2794 356° North 167 192 9,900  Level Oakland Center
Mon 08:30:45 PM 38.7172 -122.2831 North 167 192 9,900  Level Oakland Center
Mon 08:31:44 PM 38.7692 -122.2814 North 172 198 9,900  Level Oakland Center
Mon 08:32:45 PM 38.8172 -122.2794 North 172 198 9,900  Level Oakland Center
Mon 08:33:45 PM 38.8653 -122.2778 North 172 198 9,900  Level Oakland Center
Mon 08:34:44 PM 38.9175 -122.2758 North 178 205 9,900 50 Level Oakland Center
Mon 08:35:45 PM 38.9653 -122.2742 North 178 205 10,000  Climbing Oakland Center
Mon 08:36:44 PM 39.0133 -122.2722 North 178 205 9,900  Descending Oakland Center
Mon 08:37:44 PM 39.0614 -122.2706 359° North 178 205 10,000 50 Climbing Oakland Center
Mon 08:38:45 PM 39.1094 -122.2714 North 178 205 10,000  Level Oakland Center
Mon 08:39:45 PM 39.1594 -122.2697 359° North 178 205 10,000  Level Oakland Center
Mon 08:40:45 PM 39.2094 -122.2706 North 178 205 10,000  Level Oakland Center
Mon 08:41:45 PM 39.2594 -122.2661 North 178 205 10,000  Level Oakland Center
Mon 08:42:45 PM 39.3075 -122.2642 359° North 178 205 10,000  Level Oakland Center
Mon 08:43:45 PM 39.3575 -122.2653 North 178 205 10,000  Level Oakland Center
Mon 08:44:45 PM 39.4056 -122.2633 359° North 178 205 10,000  Level Oakland Center
Mon 08:45:45 PM 39.4514 -122.2642 11° North 173 199 10,000  Level Oakland Center
Mon 08:46:45 PM 39.4994 -122.2517 359° North 173 199 10,000 -50 Level Oakland Center
Mon 08:47:45 PM 39.5475 -122.2525 359° North 173 199 9,900 -50 Descending Oakland Center
Mon 08:48:45 PM 39.5975 -122.2533 North 178 205 9,900 50 Level Oakland Center
Mon 08:49:44 PM 39.6456 -122.2489 359° North 178 205 10,000 50 Climbing Oakland Center
Mon 08:50:45 PM 39.6956 -122.2497 North 178 205 10,000  Level Oakland Center
Mon 08:51:44 PM 39.7456 -122.2453 359° North 178 205 10,000  Level Oakland Center
Mon 08:52:44 PM 39.7936 -122.2461 North 178 205 10,000  Level Oakland Center
Mon 08:53:45 PM 39.8414 -122.2442 North 178 205 10,000  Level Oakland Center
Mon 08:54:44 PM 39.8914 -122.2425 North 178 205 10,000 -50 Level Oakland Center
Mon 08:55:44 PM 39.9394 -122.2406 359° North 178 205 9,900 -50 Descending Oakland Center
Mon 08:56:44 PM 39.9875 -122.2414 North 178 205 9,900 50 Level Oakland Center
Mon 08:57:44 PM 40.0353 -122.2397 North 178 205 10,000 50 Climbing Oakland Center
Mon 08:58:45 PM 40.0856 -122.2350 11° North 178 205 10,000 -50 Level Oakland Center
Mon 08:59:45 PM 40.1356 -122.2225 14° North 178 205 9,900  Descending Oakland Center
Mon 09:00:44 PM 40.1836 -122.2069 14° North 178 205 10,000 50 Climbing Oakland Center
Mon 09:01:44 PM 40.2297 -122.1914 15° North 178 205 10,000  Level Oakland Center
Mon 09:02:45 PM 40.2800 -122.1733 15° North 178 205 10,000  Level Oakland Center
Mon 09:03:44 PM 40.3258 -122.1578 14° North 184 212 10,000  Level Oakland Center
Mon 09:04:44 PM 40.3742 -122.1422 16° North 179 206 10,000  Level Oakland Center
Mon 09:05:45 PM 40.4242 -122.1239 14° North 179 206 10,000 -50 Level Oakland Center
Mon 09:06:44 PM 40.4703 -122.1083 17° North 179 206 9,900  Descending Oakland Center
Mon 09:07:44 PM 40.5161 -122.0900 14° North 179 206 10,000 50 Climbing Oakland Center
Mon 09:08:44 PM 40.5644 -122.0744 14° North 179 206 10,000  Level Oakland Center
Mon 09:09:44 PM 40.6125 -122.0589 15° North 179 206 10,000  Level Oakland Center
Mon 09:10:45 PM 40.6583 -122.0431 15° North 174 200 10,000  Level Oakland Center
Mon 09:11:45 PM 40.7086 -122.0247 16° North 174 200 10,000  Level Oakland Center
Mon 09:12:44 PM 40.7567 -122.0064 14° North 174 200 10,000 -50 Level Oakland Center
Mon 09:13:45 PM 40.8047 -121.9906 16° North 174 200 9,900 -51 Descending Oakland Center
Mon 09:14:41 PM 40.8514 -121.9731 15° North 179 206 9,900 103 Level Seattle Center
Mon 09:15:42 PM 40.8997 -121.9556 15° North 179 206 10,100 98 Climbing Seattle Center
Mon 09:16:43 PM 40.9475 -121.9383 15° North 179 206 10,100 -49 Level Seattle Center
Mon 09:17:44 PM 40.9958 -121.9217 16° North 179 206 10,000 -49 Descending Seattle Center
Mon 09:18:45 PM 41.0436 -121.9033 15° North 179 206 10,000  Level Seattle Center
Mon 09:19:47 PM 41.0922 -121.8861 15° North 180 207 10,000  Level Seattle Center
Mon 09:20:48 PM 41.1503 -121.8650 14° North 180 207 10,000  Level Seattle Center
Mon 09:21:49 PM 41.1956 -121.8494 15° North 181 208 10,000  Level Seattle Center
Mon 09:22:50 PM 41.2433 -121.8322 15° North 179 206 10,000 49 Level Seattle Center
Mon 09:23:51 PM 41.2922 -121.8147 15° North 181 208 10,100 49 Climbing Seattle Center
Mon 09:24:52 PM 41.3381 -121.7981 16° North 175 201 10,100 -49 Level Seattle Center
Mon 09:25:53 PM 41.3836 -121.7806 15° North 173 199 10,000  Descending Seattle Center
Mon 09:26:54 PM 41.4303 -121.7639 16° North 173 199 10,100  Climbing Seattle Center
Mon 09:27:55 PM 41.4756 -121.7467 10° North 172 198 10,000 -49 Descending Seattle Center
Mon 09:28:56 PM 41.5208 -121.7358 North 168 193 10,000 49 Level Seattle Center
Mon 09:29:57 PM 41.5750 -121.7250 North 165 190 10,100  Climbing Seattle Center
Mon 09:30:58 PM 41.6219 -121.7167 North 167 192 10,000 -49 Descending Seattle Center
Mon 09:31:59 PM 41.6678 -121.7072 North 168 193 10,000 49 Level Seattle Center
Mon 09:33:00 PM 41.7139 -121.6981 North 168 193 10,100  Climbing Seattle Center
Mon 09:34:01 PM 41.7606 -121.6892 North 169 194 10,000 -49 Descending Seattle Center
Mon 09:35:03 PM 41.8075 -121.6797 North 170 196 10,000  Level Seattle Center
Mon 09:36:04 PM 41.8539 -121.6711 North 169 194 10,000 49 Level Seattle Center
Mon 09:37:05 PM 41.9000 -121.6611 North 169 194 10,100  Climbing Seattle Center
Mon 09:38:06 PM 41.9486 -121.6519 North 172 198 10,000 -49 Descending Seattle Center
Mon 09:39:07 PM 41.9958 -121.6428 North 174 200 10,000 49 Level Seattle Center
Mon 09:40:08 PM 42.0514 -121.6319 North 171 197 10,100  Climbing Seattle Center
Mon 09:41:09 PM 42.0989 -121.6225 North 172 198 10,000  Descending Seattle Center
Mon 09:42:10 PM 42.1464 -121.6128 North 173 199 10,100 49 Climbing Seattle Center
Mon 09:43:11 PM 42.1931 -121.6025 North 172 198 10,100 195 Level Seattle Center
Mon 09:44:13 PM 42.2419 -121.5928 North 169 194 10,500 488 Climbing Seattle Center
Mon 09:45:14 PM 42.2797 -121.5844 North 162 186 11,100 492 Climbing Seattle Center
Mon 09:46:15 PM 42.3197 -121.5761 North 153 176 11,500 443 Climbing Seattle Center
Mon 09:47:16 PM 42.3600 -121.5675 North 149 171 12,000 246 Climbing Seattle Center
Mon 09:48:17 PM 42.4036 -121.5583 North 152 175 12,000  Level Seattle Center
Mon 09:49:18 PM 42.4592 -121.5481 North 161 185 12,000  Level Seattle Center
Mon 09:50:19 PM 42.5064 -121.5389 10° North 167 192 12,000  Level Seattle Center
Mon 09:51:20 PM 42.5500 -121.5289 North 165 190 12,000  Level Seattle Center
Mon 09:52:21 PM 42.5919 -121.5200 North 159 183 12,000  Level Seattle Center
Mon 09:53:22 PM 42.6336 -121.5122 North 155 178 12,000  Level Seattle Center
Mon 09:54:23 PM 42.6781 -121.5036 10° North 157 181 12,000 49 Level Seattle Center
Mon 09:55:24 PM 42.7233 -121.4925 10° North 161 185 12,100  Climbing Seattle Center
Mon 09:56:25 PM 42.7697 -121.4814 North 166 191 12,000 -49 Descending Seattle Center
Mon 09:57:26 PM 42.8158 -121.4733 North 167 192 12,000  Level Seattle Center
Mon 09:58:27 PM 42.8611 -121.4650 10° North 166 191 12,000  Level Seattle Center
Mon 09:59:28 PM 42.9069 -121.4539 North 166 191 12,000 49 Level Seattle Center
Mon 10:00:29 PM 42.9519 -121.4444 North 165 190 12,100  Climbing Seattle Center
Mon 10:01:43 PM 43.0153 -121.4325 North 165 190 12,000 -44 Descending Seattle Center
Mon 10:02:44 PM 43.0614 -121.4225 North 165 190 12,000 49 Level Seattle Center
Mon 10:03:45 PM 43.1044 -121.4142 North 162 186 12,100  Climbing Seattle Center
Mon 10:04:46 PM 43.1500 -121.4042 North 163 188 12,000 -49 Descending Seattle Center
Mon 10:05:47 PM 43.1969 -121.3944 North 166 191 12,000  Level Seattle Center
Mon 10:06:48 PM 43.2433 -121.3847 North 168 193 12,000 49 Level Seattle Center
Mon 10:07:50 PM 43.2894 -121.3742 North 168 193 12,100  Climbing Seattle Center
Mon 10:08:51 PM 43.3353 -121.3642 11° North 168 193 12,000 -49 Descending Seattle Center
Mon 10:09:52 PM 43.3833 -121.3517 10° North 172 198 12,000  Level Seattle Center
Mon 10:10:53 PM 43.4306 -121.3406 North 174 200 12,000  Level Seattle Center
Mon 10:11:54 PM 43.4797 -121.3322 11° North 176 203 12,000 -49 Level Seattle Center
Mon 10:12:55 PM 43.5375 -121.3172 North 176 203 11,900 -295 Descending Seattle Center
Mon 10:13:56 PM 43.5839 -121.3092 North 176 203 11,400 -689 Descending Seattle Center
Mon 10:14:57 PM 43.6356 -121.3000 North 183 211 10,500 -639 Descending Seattle Center
Mon 10:15:58 PM 43.6875 -121.2883 North 187 215 10,100 -197 Descending Seattle Center
Mon 10:16:59 PM 43.7317 -121.2797 10° North 169 194 10,100  Level Seattle Center
Mon 10:18:00 PM 43.7761 -121.2686 North 162 186 10,100  Level Seattle Center
Mon 10:19:02 PM 43.8197 -121.2594 North 160 184 10,100 -146 Level Seattle Center
Mon 10:20:03 PM 43.8631 -121.2508 North 159 183 9,800 -443 Descending Seattle Center
Mon 10:21:04 PM 43.9178 -121.2392 North 163 188 9,200 -393 Descending Seattle Center
Mon 10:22:05 PM 43.9575 -121.2333 North 151 174 9,000 -197 Descending Seattle Center

Login

Don't have an account? Register now (free) for customized features, flight alerts, and more!